sensor_id;sensor_type;location;lat;lon;timestamp;pressure;altitude;pressure_sealevel;temperature;humidity
68301;BME280;55146;47.468;18.806;2023-03-13T00:01:58;100262.25;;;4.29;56.67
68301;BME280;55146;47.468;18.806;2023-03-13T00:04:25;100273.63;;;4.26;57.19
68301;BME280;55146;47.468;18.806;2023-03-13T00:06:50;100266.03;;;4.28;58.07
68301;BME280;55146;47.468;18.806;2023-03-13T00:09:16;100250.53;;;4.28;58.48
68301;BME280;55146;47.468;18.806;2023-03-13T00:11:42;100257.28;;;4.26;59.50
68301;BME280;55146;47.468;18.806;2023-03-13T00:14:08;100257.28;;;4.26;59.34
68301;BME280;55146;47.468;18.806;2023-03-13T00:16:34;100263.94;;;4.30;59.26
68301;BME280;55146;47.468;18.806;2023-03-13T00:19:02;100257.25;;;4.44;59.20
68301;BME280;55146;47.468;18.806;2023-03-13T00:21:29;100253.78;;;4.67;58.34
68301;BME280;55146;47.468;18.806;2023-03-13T00:23:56;100259.97;;;4.74;58.29
68301;BME280;55146;47.468;18.806;2023-03-13T00:26:23;100259.53;;;4.59;59.19
68301;BME280;55146;47.468;18.806;2023-03-13T00:28:50;100251.31;;;4.47;60.27
68301;BME280;55146;47.468;18.806;2023-03-13T00:31:21;100245.25;;;4.45;61.02
68301;BME280;55146;47.468;18.806;2023-03-13T00:33:48;100244.94;;;4.53;61.23
68301;BME280;55146;47.468;18.806;2023-03-13T00:36:26;100250.53;;;4.58;60.93
68301;BME280;55146;47.468;18.806;2023-03-13T00:38:53;100247.13;;;4.63;60.94
68301;BME280;55146;47.468;18.806;2023-03-13T00:41:21;100245.81;;;4.65;61.08
68301;BME280;55146;47.468;18.806;2023-03-13T00:43:47;100249.63;;;4.76;60.81
68301;BME280;55146;47.468;18.806;2023-03-13T00:46:15;100235.06;;;4.70;61.16
68301;BME280;55146;47.468;18.806;2023-03-13T00:48:41;100237.91;;;4.75;61.05
68301;BME280;55146;47.468;18.806;2023-03-13T00:51:07;100228.00;;;4.81;60.49
68301;BME280;55146;47.468;18.806;2023-03-13T00:53:33;100220.16;;;4.84;60.99
68301;BME280;55146;47.468;18.806;2023-03-13T00:56:10;100217.31;;;4.79;61.24
68301;BME280;55146;47.468;18.806;2023-03-13T00:58:38;100212.94;;;4.90;60.96
68301;BME280;55146;47.468;18.806;2023-03-13T01:01:27;100221.47;;;4.82;61.36
68301;BME280;55146;47.468;18.806;2023-03-13T01:03:58;100225.81;;;4.71;61.83
68301;BME280;55146;47.468;18.806;2023-03-13T01:06:26;100221.09;;;4.67;62.11
68301;BME280;55146;47.468;18.806;2023-03-13T01:08:53;100215.84;;;4.65;62.02
68301;BME280;55146;47.468;18.806;2023-03-13T01:11:24;100214.47;;;4.74;61.96
68301;BME280;55146;47.468;18.806;2023-03-13T01:13:58;100207.94;;;4.75;61.96
68301;BME280;55146;47.468;18.806;2023-03-13T01:16:25;100212.69;;;4.80;61.82
68301;BME280;55146;47.468;18.806;2023-03-13T01:18:53;100217.31;;;4.79;61.84
68301;BME280;55146;47.468;18.806;2023-03-13T01:21:21;100207.16;;;4.86;61.82
68301;BME280;55146;47.468;18.806;2023-03-13T01:23:47;100195.75;;;4.89;61.69
68301;BME280;55146;47.468;18.806;2023-03-13T01:26:14;100195.03;;;4.82;62.02
68301;BME280;55146;47.468;18.806;2023-03-13T01:28:39;100196.25;;;4.86;61.84
68301;BME280;55146;47.468;18.806;2023-03-13T01:33:43;100187.22;;;4.74;62.80
68301;BME280;55146;47.468;18.806;2023-03-13T01:36:08;100191.84;;;4.85;62.57
68301;BME280;55146;47.468;18.806;2023-03-13T01:38:35;100188.19;;;4.80;62.54
68301;BME280;55146;47.468;18.806;2023-03-13T01:41:01;100184.28;;;4.87;62.64
68301;BME280;55146;47.468;18.806;2023-03-13T01:43:30;100182.97;;;4.90;62.68
68301;BME280;55146;47.468;18.806;2023-03-13T01:50:59;100186.31;;;4.92;62.46
68301;BME280;55146;47.468;18.806;2023-03-13T01:53:27;100194.09;;;5.00;62.08
68301;BME280;55146;47.468;18.806;2023-03-13T01:55:56;100184.88;;;4.89;62.65
68301;BME280;55146;47.468;18.806;2023-03-13T01:58:22;100173.50;;;4.81;63.19
68301;BME280;55146;47.468;18.806;2023-03-13T02:00:47;100180.00;;;4.80;63.28
68301;BME280;55146;47.468;18.806;2023-03-13T02:03:16;100178.47;;;4.84;63.13
68301;BME280;55146;47.468;18.806;2023-03-13T02:05:43;100170.50;;;4.82;63.38
68301;BME280;55146;47.468;18.806;2023-03-13T02:10:41;100173.13;;;5.01;62.66
68301;BME280;55146;47.468;18.806;2023-03-13T02:13:11;100166.28;;;4.98;62.84
68301;BME280;55146;47.468;18.806;2023-03-13T02:15:39;100168.16;;;4.98;62.92
68301;BME280;55146;47.468;18.806;2023-03-13T02:18:05;100166.06;;;5.00;63.02
68301;BME280;55146;47.468;18.806;2023-03-13T02:20:31;100165.34;;;5.04;62.95
68301;BME280;55146;47.468;18.806;2023-03-13T02:23:08;100171.12;;;5.08;62.75
68301;BME280;55146;47.468;18.806;2023-03-13T02:25:41;100166.72;;;4.95;63.08
68301;BME280;55146;47.468;18.806;2023-03-13T02:28:12;100165.78;;;5.01;63.14
68301;BME280;55146;47.468;18.806;2023-03-13T02:30:41;100171.25;;;5.01;63.04
68301;BME280;55146;47.468;18.806;2023-03-13T02:33:07;100167.78;;;4.94;63.14
68301;BME280;55146;47.468;18.806;2023-03-13T02:35:33;100174.47;;;4.98;63.01
68301;BME280;55146;47.468;18.806;2023-03-13T02:38:03;100169.22;;;4.97;63.11
68301;BME280;55146;47.468;18.806;2023-03-13T02:40:41;100174.34;;;4.93;63.21
68301;BME280;55146;47.468;18.806;2023-03-13T02:43:14;100169.47;;;4.95;63.19
68301;BME280;55146;47.468;18.806;2023-03-13T02:45:41;100168.28;;;4.91;63.30
68301;BME280;55146;47.468;18.806;2023-03-13T02:48:06;100171.97;;;4.97;63.26
68301;BME280;55146;47.468;18.806;2023-03-13T02:50:32;100173.97;;;5.01;63.22
68301;BME280;55146;47.468;18.806;2023-03-13T02:53:02;100175.75;;;5.07;63.05
68301;BME280;55146;47.468;18.806;2023-03-13T02:55:38;100172.44;;;5.17;62.77
68301;BME280;55146;47.468;18.806;2023-03-13T02:58:05;100178.97;;;5.16;62.73
68301;BME280;55146;47.468;18.806;2023-03-13T03:00:30;100178.59;;;5.01;63.12
68301;BME280;55146;47.468;18.806;2023-03-13T03:02:55;100176.34;;;4.98;63.42
68301;BME280;55146;47.468;18.806;2023-03-13T03:05:21;100183.19;;;4.88;63.66
68301;BME280;55146;47.468;18.806;2023-03-13T03:07:48;100178.84;;;4.87;63.62
68301;BME280;55146;47.468;18.806;2023-03-13T03:10:14;100170.50;;;4.82;63.87
68301;BME280;55146;47.468;18.806;2023-03-13T03:12:40;100169.56;;;4.77;64.10
68301;BME280;55146;47.468;18.806;2023-03-13T03:15:06;100170.88;;;4.74;64.29
68301;BME280;55146;47.468;18.806;2023-03-13T03:17:31;100177.16;;;4.75;64.37
68301;BME280;55146;47.468;18.806;2023-03-13T03:19:56;100178.91;;;4.69;64.41
68301;BME280;55146;47.468;18.806;2023-03-13T03:22:22;100182.84;;;4.73;64.03
68301;BME280;55146;47.468;18.806;2023-03-13T03:24:47;100173.44;;;4.69;64.19
68301;BME280;55146;47.468;18.806;2023-03-13T03:27:13;100181.28;;;4.66;64.14
68301;BME280;55146;47.468;18.806;2023-03-13T03:29:38;100182.34;;;4.65;64.19
68301;BME280;55146;47.468;18.806;2023-03-13T03:32:04;100181.03;;;4.56;64.35
68301;BME280;55146;47.468;18.806;2023-03-13T03:34:29;100174.03;;;4.60;64.27
68301;BME280;55146;47.468;18.806;2023-03-13T03:36:55;100172.37;;;4.59;64.41
68301;BME280;55146;47.468;18.806;2023-03-13T03:39:20;100171.72;;;4.45;64.84
68301;BME280;55146;47.468;18.806;2023-03-13T03:41:46;100181.66;;;4.39;65.04
68301;BME280;55146;47.468;18.806;2023-03-13T03:44:11;100181.31;;;4.36;65.21
68301;BME280;55146;47.468;18.806;2023-03-13T03:46:36;100186.28;;;4.39;65.02
68301;BME280;55146;47.468;18.806;2023-03-13T03:49:02;100195.06;;;4.41;65.18
68301;BME280;55146;47.468;18.806;2023-03-13T03:51:27;100185.19;;;4.28;65.44
68301;BME280;55146;47.468;18.806;2023-03-13T03:53:52;100197.59;;;4.24;65.62
68301;BME280;55146;47.468;18.806;2023-03-13T03:56:19;100191.19;;;4.19;65.91
68301;BME280;55146;47.468;18.806;2023-03-13T03:58:44;100201.88;;;4.02;66.72
68301;BME280;55146;47.468;18.806;2023-03-13T04:01:09;100200.41;;;4.18;66.47
68301;BME280;55146;47.468;18.806;2023-03-13T04:03:35;100201.31;;;4.30;66.08
68301;BME280;55146;47.468;18.806;2023-03-13T04:06:00;100206.87;;;4.35;66.06
68301;BME280;55146;47.468;18.806;2023-03-13T04:08:25;100207.72;;;4.35;66.12
68301;BME280;55146;47.468;18.806;2023-03-13T04:10:51;100200.41;;;4.18;66.85
68301;BME280;55146;47.468;18.806;2023-03-13T04:13:16;100204.41;;;4.15;67.05
68301;BME280;55146;47.468;18.806;2023-03-13T04:15:42;100212.16;;;4.18;66.94
68301;BME280;55146;47.468;18.806;2023-03-13T04:18:07;100208.06;;;4.09;67.53
68301;BME280;55146;47.468;18.806;2023-03-13T04:20:33;100214.47;;;4.15;67.46
68301;BME280;55146;47.468;18.806;2023-03-13T04:22:58;100212.50;;;4.22;67.42
68301;BME280;55146;47.468;18.806;2023-03-13T04:25:24;100210.16;;;4.25;67.25
68301;BME280;55146;47.468;18.806;2023-03-13T04:27:49;100213.47;;;4.27;67.41
68301;BME280;55146;47.468;18.806;2023-03-13T04:30:15;100215.69;;;4.19;67.72
68301;BME280;55146;47.468;18.806;2023-03-13T04:32:40;100216.44;;;4.07;68.19
68301;BME280;55146;47.468;18.806;2023-03-13T04:35:06;100220.06;;;4.20;67.80
68301;BME280;55146;47.468;18.806;2023-03-13T04:37:31;100216.87;;;4.23;67.74
68301;BME280;55146;47.468;18.806;2023-03-13T04:39:56;100212.97;;;4.19;67.98
68301;BME280;55146;47.468;18.806;2023-03-13T04:42:22;100206.63;;;4.25;67.59
68301;BME280;55146;47.468;18.806;2023-03-13T04:44:47;100211.13;;;4.31;67.35
68301;BME280;55146;47.468;18.806;2023-03-13T04:47:13;100214.47;;;4.44;66.90
68301;BME280;55146;47.468;18.806;2023-03-13T04:49:38;100214.53;;;4.26;67.22
68301;BME280;55146;47.468;18.806;2023-03-13T04:52:04;100225.50;;;4.38;67.08
68301;BME280;55146;47.468;18.806;2023-03-13T04:54:29;100222.66;;;4.44;66.51
68301;BME280;55146;47.468;18.806;2023-03-13T04:56:55;100216.44;;;4.56;66.03
68301;BME280;55146;47.468;18.806;2023-03-13T04:59:20;100229.09;;;4.50;66.16
68301;BME280;55146;47.468;18.806;2023-03-13T05:01:45;100229.75;;;4.45;66.27
68301;BME280;55146;47.468;18.806;2023-03-13T05:04:11;100227.66;;;4.47;65.68
68301;BME280;55146;47.468;18.806;2023-03-13T05:06:36;100224.44;;;4.51;65.93
68301;BME280;55146;47.468;18.806;2023-03-13T05:09:02;100228.44;;;4.36;66.29
68301;BME280;55146;47.468;18.806;2023-03-13T05:11:28;100230.97;;;4.50;65.62
68301;BME280;55146;47.468;18.806;2023-03-13T05:13:54;100226.47;;;4.43;65.66
68301;BME280;55146;47.468;18.806;2023-03-13T05:16:19;100233.53;;;4.44;65.83
68301;BME280;55146;47.468;18.806;2023-03-13T05:18:44;100235.56;;;4.37;65.89
68301;BME280;55146;47.468;18.806;2023-03-13T05:21:10;100237.06;;;4.33;66.00
68301;BME280;55146;47.468;18.806;2023-03-13T05:23:35;100237.63;;;4.24;66.44
68301;BME280;55146;47.468;18.806;2023-03-13T05:26:01;100237.31;;;4.32;66.35
68301;BME280;55146;47.468;18.806;2023-03-13T05:28:26;100241.16;;;4.24;66.34
68301;BME280;55146;47.468;18.806;2023-03-13T05:30:51;100251.22;;;4.24;66.74
68301;BME280;55146;47.468;18.806;2023-03-13T05:33:17;100249.91;;;4.26;66.40
68301;BME280;55146;47.468;18.806;2023-03-13T05:35:44;100249.12;;;4.26;66.34
68301;BME280;55146;47.468;18.806;2023-03-13T05:38:10;100245.47;;;4.32;66.13
68301;BME280;55146;47.468;18.806;2023-03-13T05:40:35;100253.66;;;4.32;65.99
68301;BME280;55146;47.468;18.806;2023-03-13T05:43:00;100244.94;;;4.23;65.98
68301;BME280;55146;47.468;18.806;2023-03-13T05:45:26;100253.34;;;4.22;65.79
68301;BME280;55146;47.468;18.806;2023-03-13T05:47:51;100252.41;;;4.28;65.84
68301;BME280;55146;47.468;18.806;2023-03-13T05:50:17;100257.09;;;4.39;65.52
68301;BME280;55146;47.468;18.806;2023-03-13T05:52:42;100259.44;;;4.35;65.15
68301;BME280;55146;47.468;18.806;2023-03-13T05:55:08;100256.50;;;4.37;64.89
68301;BME280;55146;47.468;18.806;2023-03-13T05:57:33;100255.81;;;4.41;64.91
68301;BME280;55146;47.468;18.806;2023-03-13T05:59:58;100252.59;;;4.44;64.61
68301;BME280;55146;47.468;18.806;2023-03-13T06:02:24;100258.41;;;4.36;64.49
68301;BME280;55146;47.468;18.806;2023-03-13T06:04:50;100250.00;;;4.38;64.74
68301;BME280;55146;47.468;18.806;2023-03-13T06:07:15;100242.84;;;4.55;63.99
68301;BME280;55146;47.468;18.806;2023-03-13T06:09:40;100238.91;;;4.51;63.95
68301;BME280;55146;47.468;18.806;2023-03-13T06:12:07;100249.34;;;4.54;63.75
68301;BME280;55146;47.468;18.806;2023-03-13T06:14:33;100247.00;;;4.69;63.24
68301;BME280;55146;47.468;18.806;2023-03-13T06:16:58;100245.03;;;4.76;63.11
68301;BME280;55146;47.468;18.806;2023-03-13T06:19:24;100241.72;;;4.74;63.02
68301;BME280;55146;47.468;18.806;2023-03-13T06:21:50;100236.81;;;4.65;62.65
68301;BME280;55146;47.468;18.806;2023-03-13T06:24:15;100232.81;;;4.67;62.76
68301;BME280;55146;47.468;18.806;2023-03-13T06:26:41;100239.22;;;4.73;62.89
68301;BME280;55146;47.468;18.806;2023-03-13T06:29:06;100246.47;;;4.79;62.70
68301;BME280;55146;47.468;18.806;2023-03-13T06:31:32;100245.53;;;4.85;62.42
68301;BME280;55146;47.468;18.806;2023-03-13T06:33:57;100248.41;;;5.02;61.93
68301;BME280;55146;47.468;18.806;2023-03-13T06:36:23;100249.97;;;5.21;60.70
68301;BME280;55146;47.468;18.806;2023-03-13T06:38:49;100243.44;;;5.10;61.61
68301;BME280;55146;47.468;18.806;2023-03-13T06:41:15;100249.47;;;5.12;61.09
68301;BME280;55146;47.468;18.806;2023-03-13T06:43:41;100251.50;;;5.05;61.19
68301;BME280;55146;47.468;18.806;2023-03-13T06:46:07;100256.97;;;5.05;61.83
68301;BME280;55146;47.468;18.806;2023-03-13T06:48:33;100249.41;;;5.31;60.84
68301;BME280;55146;47.468;18.806;2023-03-13T06:50:58;100248.81;;;5.28;60.91
68301;BME280;55146;47.468;18.806;2023-03-13T06:53:24;100244.06;;;5.24;60.84
68301;BME280;55146;47.468;18.806;2023-03-13T06:55:49;100246.78;;;5.36;60.21
68301;BME280;55146;47.468;18.806;2023-03-13T06:58:16;100242.03;;;5.66;59.70
68301;BME280;55146;47.468;18.806;2023-03-13T07:00:41;100241.56;;;5.92;58.95
68301;BME280;55146;47.468;18.806;2023-03-13T07:03:09;100245.53;;;6.13;57.77
68301;BME280;55146;47.468;18.806;2023-03-13T07:05:35;100247.53;;;6.29;56.77
68301;BME280;55146;47.468;18.806;2023-03-13T07:08:00;100240.72;;;6.32;57.67
68301;BME280;55146;47.468;18.806;2023-03-13T07:10:26;100241.50;;;6.44;56.75
68301;BME280;55146;47.468;18.806;2023-03-13T07:12:51;100244.16;;;6.39;56.44
68301;BME280;55146;47.468;18.806;2023-03-13T07:15:16;100243.19;;;6.45;56.95
68301;BME280;55146;47.468;18.806;2023-03-13T07:17:42;100235.66;;;6.52;56.50
68301;BME280;55146;47.468;18.806;2023-03-13T07:20:08;100234.78;;;6.80;55.83
68301;BME280;55146;47.468;18.806;2023-03-13T07:22:36;100234.00;;;7.13;54.31
68301;BME280;55146;47.468;18.806;2023-03-13T07:25:03;100235.66;;;6.97;54.74
68301;BME280;55146;47.468;18.806;2023-03-13T07:27:29;100234.09;;;7.18;54.52
68301;BME280;55146;47.468;18.806;2023-03-13T07:29:54;100239.38;;;7.41;53.85
68301;BME280;55146;47.468;18.806;2023-03-13T07:32:19;100237.69;;;7.73;52.51
68301;BME280;55146;47.468;18.806;2023-03-13T07:34:45;100242.38;;;7.95;52.31
68301;BME280;55146;47.468;18.806;2023-03-13T07:37:11;100229.69;;;7.89;52.38
68301;BME280;55146;47.468;18.806;2023-03-13T07:39:36;100235.94;;;8.06;51.62
68301;BME280;55146;47.468;18.806;2023-03-13T07:42:02;100228.59;;;7.90;52.24
68301;BME280;55146;47.468;18.806;2023-03-13T07:44:27;100220.19;;;8.18;51.38
68301;BME280;55146;47.468;18.806;2023-03-13T07:46:53;100222.16;;;8.23;51.33
68301;BME280;55146;47.468;18.806;2023-03-13T07:49:18;100218.03;;;7.98;52.47
68301;BME280;55146;47.468;18.806;2023-03-13T07:51:43;100220.06;;;8.08;51.93
68301;BME280;55146;47.468;18.806;2023-03-13T07:54:11;100205.97;;;8.43;50.85
68301;BME280;55146;47.468;18.806;2023-03-13T07:56:37;100203.91;;;8.55;50.73
68301;BME280;55146;47.468;18.806;2023-03-13T07:59:02;100203.34;;;8.80;49.51
68301;BME280;55146;47.468;18.806;2023-03-13T08:01:28;100204.47;;;8.84;49.50
68301;BME280;55146;47.468;18.806;2023-03-13T08:03:54;100194.03;;;8.81;50.04
68301;BME280;55146;47.468;18.806;2023-03-13T08:06:22;100199.34;;;8.92;49.82
68301;BME280;55146;47.468;18.806;2023-03-13T08:08:49;100192.91;;;9.14;48.90
68301;BME280;55146;47.468;18.806;2023-03-13T08:11:19;100187.56;;;8.97;49.11
68301;BME280;55146;47.468;18.806;2023-03-13T08:13:45;100180.38;;;9.23;49.26
68301;BME280;55146;47.468;18.806;2023-03-13T08:16:22;100175.50;;;9.82;47.28
68301;BME280;55146;47.468;18.806;2023-03-13T08:18:50;100166.75;;;9.85;47.51
68301;BME280;55146;47.468;18.806;2023-03-13T08:21:25;100171.00;;;9.56;47.51
68301;BME280;55146;47.468;18.806;2023-03-13T08:23:55;100159.34;;;9.86;47.95
68301;BME280;55146;47.468;18.806;2023-03-13T08:26:25;100153.47;;;10.29;46.09
68301;BME280;55146;47.468;18.806;2023-03-13T08:28:56;100152.97;;;10.68;45.94
68301;BME280;55146;47.468;18.806;2023-03-13T08:31:24;100156.84;;;11.02;43.80
68301;BME280;55146;47.468;18.806;2023-03-13T08:33:50;100152.16;;;11.08;43.82
68301;BME280;55146;47.468;18.806;2023-03-13T08:38:43;100157.94;;;10.71;43.61
68301;BME280;55146;47.468;18.806;2023-03-13T08:41:10;100152.72;;;10.84;42.81
68301;BME280;55146;47.468;18.806;2023-03-13T08:43:36;100146.69;;;10.98;42.66
68301;BME280;55146;47.468;18.806;2023-03-13T08:46:02;100153.25;;;10.81;42.41
68301;BME280;55146;47.468;18.806;2023-03-13T08:48:27;100146.91;;;11.11;42.59
68301;BME280;55146;47.468;18.806;2023-03-13T08:51:10;100146.66;;;11.28;42.01
68301;BME280;55146;47.468;18.806;2023-03-13T08:53:38;100139.63;;;11.81;42.25
68301;BME280;55146;47.468;18.806;2023-03-13T08:56:04;100143.16;;;11.92;40.32
68301;BME280;55146;47.468;18.806;2023-03-13T08:58:30;100144.63;;;11.74;40.47
68301;BME280;55146;47.468;18.806;2023-03-13T09:01:04;100138.00;;;11.70;40.32
68301;BME280;55146;47.468;18.806;2023-03-13T09:03:30;100127.28;;;11.58;39.42
68301;BME280;55146;47.468;18.806;2023-03-13T09:05:56;100116.78;;;11.75;40.35
68301;BME280;55146;47.468;18.806;2023-03-13T09:08:22;100111.13;;;12.06;40.22
68301;BME280;55146;47.468;18.806;2023-03-13T09:11:03;100104.75;;;12.15;39.91
68301;BME280;55146;47.468;18.806;2023-03-13T09:13:31;100117.63;;;11.66;39.81
68301;BME280;55146;47.468;18.806;2023-03-13T09:15:58;100119.50;;;11.81;40.11
68301;BME280;55146;47.468;18.806;2023-03-13T09:18:25;100115.00;;;12.05;39.61
68301;BME280;55146;47.468;18.806;2023-03-13T09:20:51;100106.59;;;12.25;38.84
68301;BME280;55146;47.468;18.806;2023-03-13T09:23:17;100106.72;;;12.49;38.85
68301;BME280;55146;47.468;18.806;2023-03-13T09:25:42;100097.56;;;12.53;38.42
68301;BME280;55146;47.468;18.806;2023-03-13T09:28:07;100102.06;;;12.44;37.41
68301;BME280;55146;47.468;18.806;2023-03-13T09:30:33;100105.91;;;12.48;38.46
68301;BME280;55146;47.468;18.806;2023-03-13T09:32:58;100101.13;;;12.59;38.72
68301;BME280;55146;47.468;18.806;2023-03-13T09:35:24;100094.78;;;12.92;37.97
68301;BME280;55146;47.468;18.806;2023-03-13T09:37:49;100085.63;;;12.97;37.95
68301;BME280;55146;47.468;18.806;2023-03-13T09:40:16;100085.69;;;13.21;37.64
68301;BME280;55146;47.468;18.806;2023-03-13T09:42:54;100083.00;;;13.40;37.46
68301;BME280;55146;47.468;18.806;2023-03-13T09:45:31;100088.50;;;13.45;36.09
68301;BME280;55146;47.468;18.806;2023-03-13T09:48:05;100088.28;;;13.12;36.76
68301;BME280;55146;47.468;18.806;2023-03-13T09:50:35;100086.94;;;13.33;37.00
68301;BME280;55146;47.468;18.806;2023-03-13T09:53:14;100083.25;;;13.43;36.98
68301;BME280;55146;47.468;18.806;2023-03-13T09:55:42;100084.75;;;13.78;36.18
68301;BME280;55146;47.468;18.806;2023-03-13T09:58:20;100070.00;;;13.40;36.07
68301;BME280;55146;47.468;18.806;2023-03-13T10:01:03;100063.59;;;13.68;36.65
68301;BME280;55146;47.468;18.806;2023-03-13T10:03:34;100058.56;;;13.75;35.72
68301;BME280;55146;47.468;18.806;2023-03-13T10:06:21;100052.41;;;13.78;36.16
68301;BME280;55146;47.468;18.806;2023-03-13T10:08:47;100048.09;;;14.10;36.24
68301;BME280;55146;47.468;18.806;2023-03-13T10:11:43;100050.50;;;14.16;35.71
68301;BME280;55146;47.468;18.806;2023-03-13T10:17:12;100044.81;;;14.45;35.41
68301;BME280;55146;47.468;18.806;2023-03-13T10:19:40;100035.97;;;14.62;35.13
68301;BME280;55146;47.468;18.806;2023-03-13T10:22:17;100051.53;;;14.58;34.20
68301;BME280;55146;47.468;18.806;2023-03-13T10:25:18;100053.47;;;14.90;34.32
68301;BME280;55146;47.468;18.806;2023-03-13T10:27:50;100048.91;;;14.99;33.07
68301;BME280;55146;47.468;18.806;2023-03-13T10:30:35;100047.94;;;14.90;33.42
68301;BME280;55146;47.468;18.806;2023-03-13T10:35:37;100041.59;;;14.89;34.03
68301;BME280;55146;47.468;18.806;2023-03-13T10:38:16;100032.25;;;14.85;34.47
68301;BME280;55146;47.468;18.806;2023-03-13T10:40:42;100036.75;;;14.95;33.73
68301;BME280;55146;47.468;18.806;2023-03-13T10:43:19;100037.25;;;14.83;35.06
68301;BME280;55146;47.468;18.806;2023-03-13T10:45:45;100034.22;;;15.12;33.89
68301;BME280;55146;47.468;18.806;2023-03-13T10:48:18;100027.25;;;15.01;34.59
68301;BME280;55146;47.468;18.806;2023-03-13T10:50:54;100021.84;;;15.23;34.22
68301;BME280;55146;47.468;18.806;2023-03-13T10:55:54;100009.94;;;15.23;33.99
68301;BME280;55146;47.468;18.806;2023-03-13T10:58:32;100006.41;;;15.31;34.26
68301;BME280;55146;47.468;18.806;2023-03-13T11:04:30;99987.88;;;15.59;33.36
68301;BME280;55146;47.468;18.806;2023-03-13T11:07:29;99997.31;;;15.30;33.82
68301;BME280;55146;47.468;18.806;2023-03-13T11:09:58;99984.38;;;15.53;34.69
68301;BME280;55146;47.468;18.806;2023-03-13T11:12:23;99988.16;;;15.57;33.74
68301;BME280;55146;47.468;18.806;2023-03-13T11:14:56;99982.91;;;15.69;33.72
68301;BME280;55146;47.468;18.806;2023-03-13T11:17:38;99968.88;;;15.52;33.90
68301;BME280;55146;47.468;18.806;2023-03-13T11:25:45;99951.31;;;15.93;33.98
68301;BME280;55146;47.468;18.806;2023-03-13T11:28:19;99952.34;;;15.97;33.08
68301;BME280;55146;47.468;18.806;2023-03-13T11:44:14;99922.53;;;16.55;33.37
68301;BME280;55146;47.468;18.806;2023-03-13T11:57:58;99893.31;;;16.58;33.27
68301;BME280;55146;47.468;18.806;2023-03-13T12:00:57;99898.56;;;16.37;34.11
68301;BME280;55146;47.468;18.806;2023-03-13T12:06:06;99893.09;;;16.24;34.97
68301;BME280;55146;47.468;18.806;2023-03-13T12:08:41;99885.72;;;16.19;34.54
68301;BME280;55146;47.468;18.806;2023-03-13T12:11:16;99887.69;;;16.18;35.09
68301;BME280;55146;47.468;18.806;2023-03-13T12:13:56;99876.16;;;16.03;35.30
68301;BME280;55146;47.468;18.806;2023-03-13T12:16:33;99872.44;;;15.85;35.71
68301;BME280;55146;47.468;18.806;2023-03-13T12:18:59;99867.78;;;15.72;36.41
68301;BME280;55146;47.468;18.806;2023-03-13T12:21:36;99863.37;;;15.57;36.71
68301;BME280;55146;47.468;18.806;2023-03-13T12:24:11;99847.06;;;15.56;36.90
68301;BME280;55146;47.468;18.806;2023-03-13T12:26:55;99857.94;;;15.66;36.88
68301;BME280;55146;47.468;18.806;2023-03-13T12:32:32;99844.75;;;15.94;36.56
68301;BME280;55146;47.468;18.806;2023-03-13T12:35:28;99830.91;;;16.25;36.34
68301;BME280;55146;47.468;18.806;2023-03-13T12:38:35;99824.94;;;16.71;35.67
68301;BME280;55146;47.468;18.806;2023-03-13T12:41:17;99816.97;;;16.86;34.74
68301;BME280;55146;47.468;18.806;2023-03-13T12:43:51;99803.78;;;17.09;34.98
68301;BME280;55146;47.468;18.806;2023-03-13T12:59:10;99759.09;;;16.80;34.62
68301;BME280;55146;47.468;18.806;2023-03-13T13:01:41;99756.09;;;16.59;35.31
68301;BME280;55146;47.468;18.806;2023-03-13T13:04:18;99769.03;;;16.64;34.94
68301;BME280;55146;47.468;18.806;2023-03-13T13:06:55;99768.88;;;16.60;35.54
68301;BME280;55146;47.468;18.806;2023-03-13T13:09:27;99767.09;;;16.81;35.19
68301;BME280;55146;47.468;18.806;2023-03-13T13:11:56;99775.81;;;17.06;34.89
68301;BME280;55146;47.468;18.806;2023-03-13T13:25:31;99754.56;;;17.18;34.53
68301;BME280;55146;47.468;18.806;2023-03-13T13:28:33;99750.94;;;16.83;35.74
68301;BME280;55146;47.468;18.806;2023-03-13T13:30:56;99750.44;;;16.81;35.87
68301;BME280;55146;47.468;18.806;2023-03-13T13:36:24;99751.13;;;17.13;35.83
68301;BME280;55146;47.468;18.806;2023-03-13T13:38:50;99733.63;;;17.12;35.81
68301;BME280;55146;47.468;18.806;2023-03-13T13:43:46;99720.88;;;16.94;35.41
68301;BME280;55146;47.468;18.806;2023-03-13T13:48:43;99711.72;;;17.28;35.60
68301;BME280;55146;47.468;18.806;2023-03-13T13:53:47;99710.22;;;16.79;36.68
68301;BME280;55146;47.468;18.806;2023-03-13T14:01:42;99716.63;;;16.88;35.97
68301;BME280;55146;47.468;18.806;2023-03-13T14:06:57;99715.00;;;17.13;36.21
68301;BME280;55146;47.468;18.806;2023-03-13T14:09:38;99723.16;;;17.01;36.60
68301;BME280;55146;47.468;18.806;2023-03-13T14:12:33;99721.53;;;16.82;36.11
68301;BME280;55146;47.468;18.806;2023-03-13T14:17:30;99706.66;;;16.78;36.03
68301;BME280;55146;47.468;18.806;2023-03-13T14:19:56;99710.44;;;16.91;36.62
68301;BME280;55146;47.468;18.806;2023-03-13T14:22:21;99706.47;;;16.75;36.82
68301;BME280;55146;47.468;18.806;2023-03-13T14:24:57;99718.06;;;16.68;37.30
68301;BME280;55146;47.468;18.806;2023-03-13T14:27:22;99714.75;;;16.57;37.17
68301;BME280;55146;47.468;18.806;2023-03-13T14:30:06;99724.69;;;16.50;37.57
68301;BME280;55146;47.468;18.806;2023-03-13T14:32:33;99720.41;;;16.44;38.33
68301;BME280;55146;47.468;18.806;2023-03-13T14:34:59;99713.69;;;16.36;38.08
68301;BME280;55146;47.468;18.806;2023-03-13T14:37:46;99710.44;;;16.34;38.04
68301;BME280;55146;47.468;18.806;2023-03-13T14:42:45;99713.06;;;16.39;37.85
68301;BME280;55146;47.468;18.806;2023-03-13T14:45:18;99709.09;;;16.23;38.03